createdAt,value
2023-05-20T00:01:49.216Z,98517.16
2023-05-20T00:04:16.199Z,98516.47
2023-05-20T00:06:42.984Z,98513.31
2023-05-20T00:09:09.992Z,98502.22
2023-05-20T00:11:36.880Z,98512.53
2023-05-20T00:14:03.539Z,98516.53
2023-05-20T00:16:30.315Z,98507.69
2023-05-20T00:18:57.454Z,98517.34
2023-05-20T00:21:24.129Z,98507.13
2023-05-20T00:23:51.051Z,98510.66
2023-05-20T00:26:17.731Z,98509.03
2023-05-20T00:28:44.534Z,98500.63
2023-05-20T00:31:11.159Z,98496.44
2023-05-20T00:33:37.899Z,98487.63
2023-05-20T00:36:04.947Z,98491.81
2023-05-20T00:38:31.650Z,98488.03
2023-05-20T00:40:58.304Z,98486.22
2023-05-20T00:43:26.568Z,98487.66
2023-05-20T00:45:53.996Z,98485.97
2023-05-20T00:48:21.807Z,98478.63
2023-05-20T00:50:49.921Z,98488.56
2023-05-20T00:53:18.741Z,98476.19
2023-05-20T00:55:45.758Z,98483.94
2023-05-20T00:58:12.515Z,98486.88
2023-05-20T01:00:39.328Z,98488.16
2023-05-20T01:03:06.343Z,98484.41
2023-05-20T01:05:33.576Z,98491.56
2023-05-20T01:08:00.855Z,98486.56
2023-05-20T01:10:30.482Z,98479.03
2023-05-20T01:13:01.830Z,98485.47
2023-05-20T01:15:30.278Z,98472.34
2023-05-20T01:18:01.944Z,98478.19
2023-05-20T01:20:32.607Z,98469.25
2023-05-20T01:22:59.815Z,98459.84
2023-05-20T01:25:26.599Z,98455.81
2023-05-20T01:27:55.900Z,98456.00
2023-05-20T01:30:22.720Z,98456.19
2023-05-20T01:32:55.081Z,98458.09
2023-05-20T01:35:23.133Z,98454.31
2023-05-20T01:37:52.367Z,98454.91
2023-05-20T01:40:19.772Z,98451.78
2023-05-20T01:42:46.761Z,98479.03
2023-05-20T01:45:13.460Z,98490.53
2023-05-20T01:47:40.118Z,98498.34
2023-05-20T01:50:07.419Z,98493.50
2023-05-20T01:52:34.025Z,98507.53
2023-05-20T01:55:00.753Z,98510.88
2023-05-20T01:57:27.395Z,98521.53
2023-05-20T01:59:54.132Z,98518.22
2023-05-20T02:02:21.018Z,98519.72
2023-05-20T02:04:50.457Z,98525.41
2023-05-20T02:07:20.866Z,98529.44
2023-05-20T02:09:47.751Z,98527.00
2023-05-20T02:12:17.370Z,98513.22
2023-05-20T02:14:45.452Z,98516.97
2023-05-20T02:17:14.593Z,98523.47
2023-05-20T02:19:41.395Z,98520.38
2023-05-20T02:22:08.184Z,98524.38
2023-05-20T02:24:34.834Z,98531.28
2023-05-20T02:27:03.252Z,98518.94
2023-05-20T02:29:29.988Z,98531.28
2023-05-20T02:31:56.646Z,98528.56
2023-05-20T02:34:23.491Z,98528.16
2023-05-20T02:36:50.170Z,98516.03
2023-05-20T02:39:17.025Z,98516.44
2023-05-20T02:41:43.676Z,98518.78
2023-05-20T02:44:10.408Z,98512.47
2023-05-20T02:46:37.096Z,98508.94
2023-05-20T02:49:04.045Z,98516.09
2023-05-20T02:51:32.124Z,98508.34
2023-05-20T02:53:58.969Z,98516.94
2023-05-20T02:56:27.132Z,98514.22
2023-05-20T02:58:53.758Z,98521.31
2023-05-20T03:01:20.393Z,98527.41
2023-05-20T03:03:47.145Z,98530.50
2023-05-20T03:06:13.817Z,98542.44
2023-05-20T03:08:42.787Z,98548.91
2023-05-20T03:11:09.674Z,98550.59
2023-05-20T03:13:36.426Z,98546.84
2023-05-20T03:16:03.298Z,98536.59
2023-05-20T03:18:30.012Z,98528.84
2023-05-20T03:20:56.882Z,98527.78
2023-05-20T03:23:23.568Z,98530.94
2023-05-20T03:25:50.385Z,98525.06
2023-05-20T03:28:17.081Z,98531.78
2023-05-20T03:30:43.774Z,98528.41
2023-05-20T03:33:10.737Z,98528.41
2023-05-20T03:35:37.704Z,98518.38
2023-05-20T03:38:04.501Z,98532.75
2023-05-20T03:40:31.126Z,98530.03
2023-05-20T03:42:57.807Z,98534.63
2023-05-20T03:45:24.584Z,98529.38
2023-05-20T03:47:51.907Z,98517.03
2023-05-20T03:50:18.664Z,98521.84
2023-05-20T03:52:45.416Z,98523.28
2023-05-20T03:55:12.330Z,98532.53
2023-05-20T03:57:39.007Z,98530.44
2023-05-20T04:00:11.261Z,98538.59
2023-05-20T04:02:38.641Z,98546.34
2023-05-20T04:05:06.081Z,98559.13
2023-05-20T04:07:32.838Z,98560.41
2023-05-20T04:09:59.615Z,98566.50
2023-05-20T04:12:30.683Z,98569.84
2023-05-20T04:15:03.760Z,98552.06
2023-05-20T04:17:31.586Z,98559.19
2023-05-20T04:19:59.716Z,98557.28
2023-05-20T04:22:27.226Z,98566.91
2023-05-20T04:24:54.021Z,98561.03
2023-05-20T04:27:21.626Z,98558.94
2023-05-20T04:29:48.448Z,98548.28
2023-05-20T04:32:18.745Z,98547.00
2023-05-20T04:34:46.417Z,98541.16
2023-05-20T04:37:13.959Z,98534.66
2023-05-20T04:39:40.658Z,98547.00
2023-05-20T04:42:07.390Z,98557.03
2023-05-20T04:44:34.629Z,98550.31
2023-05-20T04:47:01.532Z,98557.66
2023-05-20T04:49:31.226Z,98551.16
2023-05-20T04:51:58.662Z,98547.59
2023-05-20T04:54:25.384Z,98558.44
2023-05-20T04:56:52.280Z,98561.16
2023-05-20T04:59:18.951Z,98565.56
2023-05-20T05:01:45.729Z,98571.84
2023-05-20T05:04:12.386Z,98581.88
2023-05-20T05:06:39.239Z,98573.94
2023-05-20T05:09:05.948Z,98578.13
2023-05-20T05:11:32.614Z,98581.47
2023-05-20T05:13:59.462Z,98567.19
2023-05-20T05:16:26.354Z,98558.56
2023-05-20T05:18:53.102Z,98558.75
2023-05-20T05:21:19.724Z,98560.59
2023-05-20T05:23:46.354Z,98557.88
2023-05-20T05:26:12.972Z,98569.19
2023-05-20T05:28:42.996Z,98576.44
2023-05-20T05:31:09.785Z,98581.00
2023-05-20T05:33:36.501Z,98591.22
2023-05-20T05:36:04.974Z,98590.13
2023-05-20T05:38:31.666Z,98599.09
2023-05-20T05:40:58.341Z,98599.44
2023-05-20T05:43:25.223Z,98593.38
2023-05-20T05:45:52.272Z,98602.84
2023-05-20T05:48:18.900Z,98596.63
2023-05-20T05:50:46.577Z,98599.09
2023-05-20T05:53:13.338Z,98596.38
2023-05-20T05:55:40.155Z,98593.13
2023-05-20T05:58:06.910Z,98588.34
2023-05-20T06:00:33.627Z,98598.66
2023-05-20T06:03:00.498Z,98582.50
2023-05-20T06:05:29.242Z,98579.47
2023-05-20T06:07:56.620Z,98599.13
2023-05-20T06:10:23.469Z,98599.69
2023-05-20T06:12:50.159Z,98597.19
2023-05-20T06:15:16.837Z,98616.09
2023-05-20T06:17:43.499Z,98609.97
2023-05-20T06:20:10.708Z,98606.59
2023-05-20T06:22:37.450Z,98608.22
2023-05-20T06:25:04.468Z,98613.75
2023-05-20T06:27:31.226Z,98604.47
2023-05-20T06:29:57.811Z,98607.72
2023-05-20T06:32:24.675Z,98613.56
2023-05-20T06:34:51.482Z,98610.41
2023-05-20T06:37:18.181Z,98616.41
2023-05-20T06:39:46.828Z,98600.63
2023-05-20T06:42:13.464Z,98604.75
2023-05-20T06:44:40.079Z,98595.91
2023-05-20T06:47:06.694Z,98603.81
2023-05-20T06:49:33.356Z,98606.44
2023-05-20T06:52:00.001Z,98615.31
2023-05-20T06:54:26.638Z,98607.91
2023-05-20T06:56:53.310Z,98611.25
2023-05-20T06:59:19.896Z,98605.38
2023-05-20T07:01:46.540Z,98604.91
2023-05-20T07:04:13.333Z,98607.50
2023-05-20T07:06:40.154Z,98597.41
2023-05-20T07:09:07.057Z,98611.16
2023-05-20T07:11:33.717Z,98618.44
2023-05-20T07:14:00.490Z,98619.25
2023-05-20T07:16:27.227Z,98621.59
2023-05-20T07:18:53.921Z,98619.34
2023-05-20T07:21:20.675Z,98607.66
2023-05-20T07:23:47.379Z,98611.84
2023-05-20T07:26:14.021Z,98617.41
2023-05-20T07:28:40.670Z,98606.13
2023-05-20T07:31:07.307Z,98635.53
2023-05-20T07:33:33.935Z,98626.38
2023-05-20T07:36:00.708Z,98631.09
2023-05-20T07:38:27.326Z,98626.09
2023-05-20T07:40:53.966Z,98632.09
2023-05-20T07:43:20.710Z,98632.47
2023-05-20T07:45:47.502Z,98642.38
2023-05-20T07:48:14.351Z,98638.94
2023-05-20T07:50:41.121Z,98643.78
2023-05-20T07:53:07.966Z,98641.88
2023-05-20T07:55:37.027Z,98638.09
2023-05-20T07:58:04.240Z,98643.47
2023-05-20T08:00:31.596Z,98641.59
2023-05-20T08:02:58.368Z,98640.38
2023-05-20T08:05:25.157Z,98639.66
2023-05-20T08:07:51.812Z,98641.22
2023-05-20T08:10:18.502Z,98633.84
2023-05-20T08:12:47.132Z,98626.94
2023-05-20T08:15:13.921Z,98619.25
2023-05-20T08:17:40.676Z,98620.13
2023-05-20T08:20:12.792Z,98621.94
2023-05-20T08:22:39.451Z,98628.38
2023-05-20T08:27:36.364Z,98622.22
2023-05-20T08:30:04.722Z,98626.16
2023-05-20T08:32:31.775Z,98638.00
2023-05-20T08:35:01.722Z,98627.75
2023-05-20T08:37:29.214Z,98628.38
2023-05-20T08:39:56.510Z,98622.19
2023-05-20T08:42:24.562Z,98629.34
2023-05-20T08:44:52.947Z,98623.03
2023-05-20T08:47:23.183Z,98626.31
2023-05-20T08:49:50.210Z,98626.59
2023-05-20T08:52:21.660Z,98635.69
2023-05-20T08:54:50.052Z,98638.69
2023-05-20T08:57:16.942Z,98633.50
2023-05-20T08:59:45.043Z,98634.44
2023-05-20T09:02:11.823Z,98629.44
2023-05-20T09:04:38.720Z,98624.50
2023-05-20T09:07:05.583Z,98631.00
2023-05-20T09:09:34.207Z,98608.91
2023-05-20T09:12:03.239Z,98616.06
2023-05-20T09:14:31.089Z,98601.19
2023-05-20T09:16:57.892Z,98611.53
2023-05-20T09:19:25.019Z,98605.81
2023-05-20T09:21:54.198Z,98600.06
2023-05-20T09:24:24.352Z,98609.09
2023-05-20T09:26:51.569Z,98603.25
2023-05-20T09:29:21.712Z,98608.94
2023-05-20T09:31:49.462Z,98601.31
2023-05-20T09:34:17.263Z,98602.59
2023-05-20T09:36:45.325Z,98599.47
2023-05-20T09:39:18.921Z,98588.50
2023-05-20T09:41:57.682Z,98586.78
2023-05-20T09:44:24.908Z,98580.09
2023-05-20T09:46:53.348Z,98569.16
2023-05-20T09:49:22.588Z,98573.06
2023-05-20T09:51:50.766Z,98563.78
2023-05-20T09:54:22.531Z,98553.28
2023-05-20T09:56:49.667Z,98563.44
2023-05-20T09:59:17.381Z,98554.13
2023-05-20T10:01:45.508Z,98560.69
2023-05-20T10:04:16.657Z,98531.06
2023-05-20T10:07:30.596Z,98560.03
2023-05-20T10:10:08.893Z,98561.69
2023-05-20T10:13:12.362Z,98560.13
2023-05-20T10:15:53.885Z,98554.69
2023-05-20T10:18:41.980Z,98564.84
2023-05-20T10:21:22.522Z,98566.66
2023-05-20T10:23:49.213Z,98569.34
2023-05-20T10:26:15.797Z,98561.53
2023-05-20T10:28:43.153Z,98562.22
2023-05-20T10:31:18.446Z,98560.88
2023-05-20T10:33:46.506Z,98564.00
2023-05-20T10:36:45.552Z,98562.53
2023-05-20T10:39:17.516Z,98557.06
2023-05-20T10:41:44.327Z,98562.03
2023-05-20T10:44:11.008Z,98574.13
2023-05-20T10:46:48.756Z,98565.53
2023-05-20T10:49:27.498Z,98562.88
2023-05-20T10:51:55.680Z,98564.59
2023-05-20T10:54:23.289Z,98570.34
2023-05-20T10:56:54.015Z,98572.47
2023-05-20T10:59:21.951Z,98570.97
2023-05-20T11:01:49.424Z,98566.81
2023-05-20T11:04:17.558Z,98559.53
2023-05-20T11:06:54.321Z,98574.16
2023-05-20T11:09:21.415Z,98583.47
2023-05-20T11:11:48.131Z,98570.66
2023-05-20T11:14:15.247Z,98578.28
2023-05-20T11:16:42.840Z,98576.75
2023-05-20T11:19:15.123Z,98574.84
2023-05-20T11:21:46.341Z,98574.03
2023-05-20T11:24:13.603Z,98571.06
2023-05-20T11:26:41.123Z,98570.44
2023-05-20T11:29:07.928Z,98570.56
2023-05-20T11:31:34.592Z,98575.22
2023-05-20T11:34:02.455Z,98569.47
2023-05-20T11:36:30.480Z,98570.75
2023-05-20T11:38:58.863Z,98556.22
2023-05-20T11:41:26.333Z,98556.84
2023-05-20T11:43:59.898Z,98545.53
2023-05-20T11:46:27.648Z,98549.91
2023-05-20T11:48:55.176Z,98532.97
2023-05-20T11:51:28.257Z,98531.22
2023-05-20T11:54:01.512Z,98535.00
2023-05-20T11:56:33.406Z,98524.88
2023-05-20T11:59:01.540Z,98536.63
2023-05-20T12:01:30.948Z,98530.56
2023-05-20T12:03:57.892Z,98519.50
2023-05-20T12:06:24.705Z,98512.91
2023-05-20T12:08:51.341Z,98516.31
2023-05-20T12:11:18.252Z,98515.09
2023-05-20T12:13:44.877Z,98512.63
2023-05-20T12:16:11.638Z,98512.81
2023-05-20T12:18:38.351Z,98520.13
2023-05-20T12:21:04.948Z,98500.31
2023-05-20T12:23:34.168Z,98509.75
2023-05-20T12:26:01.200Z,98508.94
2023-05-20T12:28:27.987Z,98501.97
2023-05-20T12:30:54.728Z,98498.44
2023-05-20T12:33:21.320Z,98494.50
2023-05-20T12:35:47.980Z,98485.00
2023-05-20T12:38:14.825Z,98470.94
2023-05-20T12:40:41.497Z,98486.06
2023-05-20T12:43:08.192Z,98479.19
2023-05-20T12:45:35.202Z,98473.00
2023-05-20T12:48:02.290Z,98462.38
2023-05-20T12:50:29.004Z,98465.44
2023-05-20T12:52:56.043Z,98462.69
2023-05-20T12:55:22.876Z,98446.22
2023-05-20T12:57:50.475Z,98449.81
2023-05-20T13:00:17.529Z,98437.53
2023-05-20T13:02:44.471Z,98437.78
2023-05-20T13:05:11.593Z,98444.47
2023-05-20T13:07:38.805Z,98455.97
2023-05-20T13:10:07.174Z,98456.69
2023-05-20T13:12:35.020Z,98444.06
2023-05-20T13:15:01.844Z,98441.94
2023-05-20T13:17:28.499Z,98442.25
2023-05-20T13:19:55.724Z,98447.94
2023-05-20T13:22:23.029Z,98440.84
2023-05-20T13:24:49.821Z,98440.94
2023-05-20T13:27:16.432Z,98433.69
2023-05-20T13:29:43.809Z,98431.25
2023-05-20T13:32:10.697Z,98431.56
2023-05-20T13:34:38.727Z,98435.63
2023-05-20T13:37:06.205Z,98430.94
2023-05-20T13:39:33.111Z,98425.97
2023-05-20T13:41:59.917Z,98414.66
2023-05-20T13:44:26.757Z,98414.75
2023-05-20T13:46:53.517Z,98396.59
2023-05-20T13:49:21.259Z,98397.69
2023-05-20T13:51:48.036Z,98396.00
2023-05-20T13:54:14.831Z,98397.47
2023-05-20T13:56:41.827Z,98387.03
2023-05-20T13:59:08.524Z,98383.66
2023-05-20T14:01:35.615Z,98375.72
2023-05-20T14:04:02.414Z,98363.00
2023-05-20T14:06:29.567Z,98369.59
2023-05-20T14:08:57.007Z,98364.94
2023-05-20T14:11:23.818Z,98376.19
2023-05-20T14:13:50.456Z,98364.41
2023-05-20T14:16:17.229Z,98359.84
2023-05-20T14:18:44.014Z,98363.13
2023-05-20T14:21:12.105Z,98360.84
2023-05-20T14:23:41.197Z,98349.00
2023-05-20T14:26:07.871Z,98351.19
2023-05-20T14:28:34.644Z,98347.84
2023-05-20T14:31:02.467Z,98359.78
2023-05-20T14:33:29.073Z,98351.66
2023-05-20T14:35:55.744Z,98358.91
2023-05-20T14:38:22.524Z,98344.94
2023-05-20T14:40:49.232Z,98346.50
2023-05-20T14:43:16.421Z,98335.34
2023-05-20T14:45:43.162Z,98327.13
2023-05-20T14:48:10.822Z,98316.16
2023-05-20T14:50:37.557Z,98311.72
2023-05-20T14:53:04.351Z,98313.16
2023-05-20T14:55:31.009Z,98311.88
2023-05-20T14:57:57.886Z,98309.00
2023-05-20T15:00:24.538Z,98317.31
2023-05-20T15:02:51.294Z,98318.47
2023-05-20T15:05:18.212Z,98318.59
2023-05-20T15:07:46.715Z,98314.16
2023-05-20T15:10:13.586Z,98316.97
2023-05-20T15:12:40.467Z,98307.25
2023-05-20T15:15:07.445Z,98312.38
2023-05-20T15:17:34.086Z,98312.00
2023-05-20T15:20:00.805Z,98309.41
2023-05-20T15:22:27.493Z,98290.56
2023-05-20T15:24:54.144Z,98306.72
2023-05-20T15:27:21.084Z,98303.97
2023-05-20T15:29:48.711Z,98309.94
2023-05-20T15:32:15.716Z,98302.56
2023-05-20T15:34:42.349Z,98304.13
2023-05-20T15:37:09.031Z,98286.22
2023-05-20T15:39:38.557Z,98286.22
2023-05-20T15:42:06.534Z,98280.47
2023-05-20T15:44:33.644Z,98277.28
2023-05-20T15:47:00.324Z,98285.19
2023-05-20T15:49:27.031Z,98272.84
2023-05-20T15:52:03.134Z,98278.31
2023-05-20T15:54:31.003Z,98287.22
2023-05-20T15:56:58.127Z,98275.22
2023-05-20T15:59:24.813Z,98285.41
2023-05-20T16:01:51.504Z,98284.31
2023-05-20T16:04:19.072Z,98291.47
2023-05-20T16:06:46.028Z,98290.41
2023-05-20T16:09:12.612Z,98286.34
2023-05-20T16:11:39.230Z,98283.25
2023-05-20T16:14:05.868Z,98284.09
2023-05-20T16:16:35.751Z,98278.16
2023-05-20T16:19:02.863Z,98285.53
2023-05-20T16:21:29.548Z,98282.94
2023-05-20T16:23:56.218Z,98279.69
2023-05-20T16:26:23.161Z,98277.34
2023-05-20T16:28:49.797Z,98284.34
2023-05-20T16:31:16.796Z,98275.19
2023-05-20T16:33:43.560Z,98271.75
2023-05-20T16:36:10.211Z,98282.66
2023-05-20T16:38:36.944Z,98280.41
2023-05-20T16:41:03.611Z,98280.41
2023-05-20T16:43:30.413Z,98279.22
2023-05-20T16:45:57.169Z,98285.28
2023-05-20T16:48:24.087Z,98279.22
2023-05-20T16:50:50.651Z,98277.78
2023-05-20T16:53:17.257Z,98280.06
2023-05-20T16:55:43.909Z,98276.13
2023-05-20T16:58:10.625Z,98272.94
2023-05-20T17:00:37.242Z,98261.75
2023-05-20T17:03:04.513Z,98264.13
2023-05-20T17:05:31.503Z,98268.53
2023-05-20T17:08:00.383Z,98271.13
2023-05-20T17:10:28.939Z,98267.59
2023-05-20T17:12:55.871Z,98266.97
2023-05-20T17:15:23.624Z,98264.59
2023-05-20T17:17:50.792Z,98260.66
2023-05-20T17:20:17.776Z,98259.38
2023-05-20T17:22:44.468Z,98269.47
2023-05-20T17:25:11.350Z,98258.06
2023-05-20T17:27:38.114Z,98265.91
2023-05-20T17:30:05.694Z,98276.84
2023-05-20T17:32:32.409Z,98269.69
2023-05-20T17:34:59.224Z,98264.22
2023-05-20T17:37:26.164Z,98269.91
2023-05-20T17:39:52.866Z,98277.06
2023-05-20T17:42:19.486Z,98276.09
2023-05-20T17:44:47.122Z,98273.34
2023-05-20T17:47:13.839Z,98273.84
2023-05-20T17:49:40.670Z,98287.84
2023-05-20T17:52:07.566Z,98286.44
2023-05-20T17:54:34.255Z,98287.28
2023-05-20T17:57:00.851Z,98288.09
2023-05-20T17:59:27.469Z,98289.63
2023-05-20T18:01:54.155Z,98295.09
2023-05-20T18:04:21.933Z,98298.06
2023-05-20T18:06:48.572Z,98294.75
2023-05-20T18:09:15.291Z,98294.34
2023-05-20T18:11:42.147Z,98295.44
2023-05-20T18:14:08.772Z,98308.47
2023-05-20T18:16:35.455Z,98303.28
2023-05-20T18:19:03.018Z,98300.75
2023-05-20T18:21:29.887Z,98301.59
2023-05-20T18:23:56.598Z,98312.88
2023-05-20T18:26:23.225Z,98316.22
2023-05-20T18:28:52.556Z,98323.81
2023-05-20T18:31:19.249Z,98332.16
2023-05-20T18:33:46.059Z,98318.72
2023-05-20T18:36:13.115Z,98327.97
2023-05-20T18:38:41.525Z,98321.91
2023-05-20T18:41:09.048Z,98325.50
2023-05-20T18:43:35.733Z,98331.19
2023-05-20T18:46:02.489Z,98327.97
2023-05-20T18:48:29.234Z,98330.94
2023-05-20T18:50:56.328Z,98327.28
2023-05-20T18:53:23.690Z,98331.22
2023-05-20T18:55:50.795Z,98333.47
2023-05-20T18:58:17.459Z,98331.56
2023-05-20T19:00:44.175Z,98340.25
2023-05-20T19:03:11.668Z,98338.16
2023-05-20T19:05:38.730Z,98327.66
2023-05-20T19:08:06.072Z,98331.97
2023-05-20T19:10:32.988Z,98333.88
2023-05-20T19:12:59.822Z,98326.75
2023-05-20T19:15:26.704Z,98321.50
2023-05-20T19:17:53.467Z,98319.88
2023-05-20T19:20:20.565Z,98323.88
2023-05-20T19:22:47.551Z,98314.38
2023-05-20T19:25:14.368Z,98311.53
2023-05-20T19:27:41.382Z,98310.53
2023-05-20T19:30:10.721Z,98310.53
2023-05-20T19:32:38.654Z,98313.13
2023-05-20T19:35:06.398Z,98312.78
2023-05-20T19:37:33.375Z,98301.81
2023-05-20T19:40:00.396Z,98304.44
2023-05-20T19:42:27.130Z,98295.50
2023-05-20T19:44:54.430Z,98299.75
2023-05-20T19:47:21.653Z,98307.66
2023-05-20T19:49:48.464Z,98288.19
2023-05-20T19:52:15.309Z,98300.75
2023-05-20T19:54:43.025Z,98299.16
2023-05-20T19:57:09.937Z,98285.84
2023-05-20T19:59:38.125Z,98284.94
2023-05-20T20:02:06.153Z,98283.34
2023-05-20T20:04:33.174Z,98281.22
2023-05-20T20:07:00.256Z,98286.53
2023-05-20T20:09:27.956Z,98271.69
2023-05-20T20:11:54.939Z,98282.59
2023-05-20T20:14:21.758Z,98272.16
2023-05-20T20:16:49.106Z,98268.94
2023-05-20T20:19:22.855Z,98264.75
2023-05-20T20:21:53.119Z,98268.00
2023-05-20T20:24:20.228Z,98261.59
2023-05-20T20:26:47.528Z,98266.63
2023-05-20T20:29:14.869Z,98262.09
2023-05-20T20:31:41.755Z,98266.03
2023-05-20T20:34:08.621Z,98262.03
2023-05-20T20:36:35.191Z,98259.75
2023-05-20T20:39:05.050Z,98268.19
2023-05-20T20:41:32.362Z,98261.53
2023-05-20T20:43:59.733Z,98264.25
2023-05-20T20:46:29.280Z,98268.41
2023-05-20T20:48:56.220Z,98266.03
2023-05-20T20:51:22.942Z,98262.94
2023-05-20T20:53:49.991Z,98267.50
2023-05-20T20:56:17.645Z,98268.69
2023-05-20T20:58:45.014Z,98269.28
2023-05-20T21:01:12.289Z,98260.63
2023-05-20T21:03:40.422Z,98266.34
2023-05-20T21:06:07.949Z,98243.38
2023-05-20T21:08:34.857Z,98254.22
2023-05-20T21:11:01.657Z,98255.50
2023-05-20T21:13:31.133Z,98253.38
2023-05-20T21:15:57.758Z,98249.13
2023-05-20T21:18:24.592Z,98252.00
2023-05-20T21:20:52.692Z,98252.00
2023-05-20T21:23:20.332Z,98246.53
2023-05-20T21:25:47.826Z,98246.13
2023-05-20T21:28:15.009Z,98249.25
2023-05-20T21:30:41.641Z,98240.94
2023-05-20T21:33:08.394Z,98238.28
2023-05-20T21:35:35.336Z,98226.16
2023-05-20T21:38:02.158Z,98226.56
2023-05-20T21:40:28.861Z,98214.03
2023-05-20T21:42:55.518Z,98215.13
2023-05-20T21:45:22.172Z,98214.28
2023-05-20T21:47:48.939Z,98209.41
2023-05-20T21:50:15.724Z,98215.72
2023-05-20T21:52:43.083Z,98195.66
2023-05-20T21:55:10.681Z,98208.50
2023-05-20T21:57:37.961Z,98203.41
2023-05-20T22:00:15.718Z,98203.88
2023-05-20T22:02:42.463Z,98195.44
2023-05-20T22:05:09.632Z,98190.94
2023-05-20T22:07:36.597Z,98183.44
2023-05-20T22:10:03.722Z,98188.06
2023-05-20T22:12:30.828Z,98179.72
2023-05-20T22:14:57.487Z,98182.00
2023-05-20T22:17:25.037Z,98177.13
2023-05-20T22:19:51.889Z,98169.78
2023-05-20T22:22:18.517Z,98173.81
2023-05-20T22:24:45.184Z,98168.38
2023-05-20T22:27:12.161Z,98177.25
2023-05-20T22:29:38.795Z,98174.75
2023-05-20T22:32:05.713Z,98168.44
2023-05-20T22:34:32.345Z,98172.47
2023-05-20T22:36:58.952Z,98155.38
2023-05-20T22:39:25.724Z,98167.63
2023-05-20T22:41:52.386Z,98163.81
2023-05-20T22:44:18.982Z,98169.91
2023-05-20T22:46:46.208Z,98157.44
2023-05-20T22:49:13.062Z,98151.38
2023-05-20T22:51:39.728Z,98158.03
2023-05-20T22:54:07.113Z,98153.41
2023-05-20T22:56:34.317Z,98153.88
2023-05-20T22:59:01.301Z,98156.34
2023-05-20T23:01:28.184Z,98160.19
2023-05-20T23:03:55.241Z,98159.78
2023-05-20T23:06:22.681Z,98156.69
2023-05-20T23:08:49.570Z,98165.13
2023-05-20T23:11:16.377Z,98155.63
2023-05-20T23:13:43.139Z,98167.63
2023-05-20T23:16:10.287Z,98157.53
2023-05-20T23:18:37.032Z,98157.16
2023-05-20T23:21:04.219Z,98143.16
2023-05-20T23:23:32.008Z,98141.63
2023-05-20T23:25:59.750Z,98135.81
2023-05-20T23:28:26.525Z,98125.22
2023-05-20T23:30:53.248Z,98125.00
2023-05-20T23:33:24.664Z,98125.94
2023-05-20T23:35:51.989Z,98129.28
2023-05-20T23:38:18.744Z,98114.19
2023-05-20T23:40:45.359Z,98114.44
2023-05-20T23:43:12.089Z,98106.47
2023-05-20T23:45:38.826Z,98110.13
2023-05-20T23:48:07.128Z,98101.69
2023-05-20T23:50:33.863Z,98106.91
2023-05-20T23:53:00.514Z,98106.75
2023-05-20T23:55:28.482Z,98101.06
2023-05-20T23:57:55.120Z,98105.94
